createdAt,value
2023-09-04T00:00:55.107Z,14.99
2023-09-04T00:03:22.268Z,14.83
2023-09-04T00:05:50.086Z,14.82
2023-09-04T00:08:17.317Z,14.78
2023-09-04T00:10:45.465Z,14.83
2023-09-04T00:13:14.047Z,14.84
2023-09-04T00:15:41.251Z,14.74
2023-09-04T00:18:09.281Z,14.72
2023-09-04T00:20:36.496Z,14.66
2023-09-04T00:23:03.836Z,14.53
2023-09-04T00:25:30.908Z,14.69
2023-09-04T00:27:59.296Z,14.68
2023-09-04T00:30:26.845Z,14.58
2023-09-04T00:32:54.105Z,14.46
2023-09-04T00:35:23.016Z,14.24
2023-09-04T00:37:50.542Z,14.37
2023-09-04T00:40:18.076Z,14.29
2023-09-04T00:42:45.165Z,14.17
2023-09-04T00:45:15.227Z,14.31
2023-09-04T00:47:43.925Z,14.27
2023-09-04T00:50:24.409Z,14.36
2023-09-04T00:52:54.682Z,14.30
2023-09-04T00:55:22.196Z,14.34
2023-09-04T00:57:49.610Z,14.31
2023-09-04T01:00:20.946Z,14.35
2023-09-04T01:02:48.414Z,14.33
2023-09-04T01:05:15.585Z,14.40
2023-09-04T01:07:43.658Z,14.42
2023-09-04T01:10:13.543Z,14.40
2023-09-04T01:13:13.986Z,14.42
2023-09-04T01:15:41.064Z,14.32
2023-09-04T01:18:09.659Z,14.26
2023-09-04T01:20:37.316Z,14.26
2023-09-04T01:23:05.110Z,14.28
2023-09-04T01:25:53.571Z,14.31
2023-09-04T01:28:24.456Z,14.38
2023-09-04T01:31:28.412Z,14.32
2023-09-04T01:34:03.532Z,14.25
2023-09-04T01:36:34.049Z,14.31
2023-09-04T01:39:01.412Z,14.16
2023-09-04T01:41:28.464Z,14.19
2023-09-04T01:43:55.722Z,14.19
2023-09-04T01:46:23.481Z,14.01
2023-09-04T01:48:50.906Z,14.09
2023-09-04T01:51:18.008Z,13.94
2023-09-04T01:53:45.112Z,14.04
2023-09-04T01:56:12.207Z,14.04
2023-09-04T01:58:39.230Z,13.97
2023-09-04T02:01:06.265Z,13.95
2023-09-04T02:03:34.620Z,13.97
2023-09-04T02:06:01.783Z,14.01
2023-09-04T02:08:28.758Z,14.03
2023-09-04T02:10:58.928Z,14.06
2023-09-04T02:13:25.908Z,14.01
2023-09-04T02:15:53.037Z,13.87
2023-09-04T02:18:20.119Z,13.91
2023-09-04T02:20:49.784Z,13.90
2023-09-04T02:23:16.771Z,13.90
2023-09-04T02:25:43.883Z,13.86
2023-09-04T02:28:10.891Z,13.88
2023-09-04T02:30:40.819Z,13.69
2023-09-04T02:33:07.880Z,13.76
2023-09-04T02:36:07.980Z,13.80
2023-09-04T02:38:39.889Z,13.76
2023-09-04T02:41:06.941Z,13.81
2023-09-04T02:43:33.940Z,13.76
2023-09-04T02:46:01.056Z,13.75
2023-09-04T02:48:28.252Z,13.80
2023-09-04T02:51:00.018Z,13.79
2023-09-04T02:53:30.270Z,13.78
2023-09-04T02:55:57.672Z,13.71
2023-09-04T02:58:25.765Z,13.64
2023-09-04T03:00:53.206Z,13.56
2023-09-04T03:03:20.871Z,13.66
2023-09-04T03:05:48.668Z,13.63
2023-09-04T03:08:16.186Z,13.71
2023-09-04T03:10:43.339Z,13.57
2023-09-04T03:13:10.378Z,13.65
2023-09-04T03:15:38.284Z,13.67
2023-09-04T03:18:07.413Z,13.65
2023-09-04T03:20:35.201Z,13.59
2023-09-04T03:23:02.546Z,13.60
2023-09-04T03:25:29.764Z,13.58
2023-09-04T03:27:57.441Z,13.56
2023-09-04T03:30:25.505Z,13.33
2023-09-04T03:32:52.795Z,13.55
2023-09-04T03:35:20.157Z,13.48
2023-09-04T03:37:47.183Z,13.46
2023-09-04T03:40:26.239Z,13.43
2023-09-04T03:42:54.500Z,13.42
2023-09-04T03:45:22.091Z,13.32
2023-09-04T03:47:50.347Z,13.41
2023-09-04T03:50:17.961Z,13.31
2023-09-04T03:52:45.308Z,13.32
2023-09-04T03:55:13.212Z,13.29
2023-09-04T03:57:52.724Z,13.17
2023-09-04T04:00:21.825Z,13.18
2023-09-04T04:02:50.521Z,13.20
2023-09-04T04:05:19.076Z,13.18
2023-09-04T04:07:46.284Z,13.20
2023-09-04T04:10:13.566Z,13.13
2023-09-04T04:12:41.212Z,13.10
2023-09-04T04:15:09.499Z,13.03
2023-09-04T04:17:37.749Z,13.14
2023-09-04T04:20:13.850Z,13.09
2023-09-04T04:22:42.103Z,13.09
2023-09-04T04:25:10.217Z,12.98
2023-09-04T04:27:37.322Z,12.98
2023-09-04T04:30:04.985Z,12.90
2023-09-04T04:32:32.321Z,12.84
2023-09-04T04:34:59.325Z,12.78
2023-09-04T04:37:26.531Z,12.58
2023-09-04T04:39:54.003Z,12.74
2023-09-04T04:42:21.224Z,12.74
2023-09-04T04:44:48.907Z,12.77
2023-09-04T04:47:16.865Z,12.66
2023-09-04T04:49:45.708Z,12.64
2023-09-04T04:52:12.747Z,12.61
2023-09-04T04:54:40.011Z,12.60
2023-09-04T04:57:07.089Z,12.62
2023-09-04T04:59:34.049Z,12.63
2023-09-04T05:02:01.651Z,12.63
2023-09-04T05:04:30.578Z,12.62
2023-09-04T05:06:58.648Z,12.58
2023-09-04T05:09:25.754Z,12.54
2023-09-04T05:11:52.859Z,12.59
2023-09-04T05:14:19.928Z,12.61
2023-09-04T05:16:47.026Z,12.51
2023-09-04T05:19:14.168Z,12.52
2023-09-04T05:21:55.437Z,12.49
2023-09-04T05:24:24.459Z,12.50
2023-09-04T05:26:51.890Z,12.49
2023-09-04T05:29:19.029Z,12.49
2023-09-04T05:31:46.020Z,12.43
2023-09-04T05:34:13.022Z,12.49
2023-09-04T05:36:39.983Z,12.48
2023-09-04T05:39:07.008Z,12.61
2023-09-04T05:41:33.967Z,12.61
2023-09-04T05:44:01.295Z,12.64
2023-09-04T05:46:28.310Z,12.60
2023-09-04T05:48:55.370Z,12.74
2023-09-04T05:51:22.402Z,12.68
2023-09-04T05:53:49.432Z,12.77
2023-09-04T05:56:18.147Z,12.75
2023-09-04T05:58:51.169Z,12.87
2023-09-04T06:01:20.178Z,12.83
2023-09-04T06:03:48.091Z,12.86
2023-09-04T06:06:16.151Z,12.89
2023-09-04T06:08:43.179Z,12.88
2023-09-04T06:11:10.149Z,12.94
2023-09-04T06:13:37.126Z,12.78
2023-09-04T06:16:05.039Z,12.96
2023-09-04T06:18:32.404Z,13.00
2023-09-04T06:20:59.587Z,13.03
2023-09-04T06:23:26.851Z,13.09
2023-09-04T06:25:53.840Z,13.13
2023-09-04T06:28:20.847Z,13.19
2023-09-04T06:30:47.912Z,13.24
2023-09-04T06:33:14.970Z,13.26
2023-09-04T06:35:41.983Z,13.35
2023-09-04T06:38:08.928Z,13.41
2023-09-04T06:40:37.393Z,13.53
2023-09-04T06:43:06.308Z,13.58
2023-09-04T06:45:33.352Z,13.72
2023-09-04T06:48:00.503Z,13.88
2023-09-04T06:50:27.546Z,14.01
2023-09-04T06:52:54.499Z,14.12
2023-09-04T06:55:21.702Z,14.17
2023-09-04T06:57:48.698Z,14.42
2023-09-04T07:00:15.936Z,14.52
2023-09-04T07:02:42.984Z,14.68
2023-09-04T07:05:10.274Z,14.87
2023-09-04T07:07:38.974Z,15.01
2023-09-04T07:10:07.535Z,15.19
2023-09-04T07:12:36.728Z,15.43
2023-09-04T07:15:04.978Z,15.55
2023-09-04T07:17:32.116Z,15.73
2023-09-04T07:19:59.398Z,16.01
2023-09-04T07:22:26.353Z,16.17
2023-09-04T07:24:53.921Z,16.35
2023-09-04T07:27:20.996Z,16.41
2023-09-04T07:29:48.369Z,16.61
2023-09-04T07:32:15.384Z,16.83
2023-09-04T07:34:42.433Z,17.09
2023-09-04T07:37:09.485Z,17.32
2023-09-04T07:39:37.167Z,17.45
2023-09-04T07:42:04.892Z,17.65
2023-09-04T07:44:33.186Z,17.91
2023-09-04T07:47:00.314Z,18.15
2023-09-04T07:49:27.292Z,18.31
2023-09-04T07:51:54.836Z,18.54
2023-09-04T07:54:22.889Z,18.58
2023-09-04T07:56:49.932Z,18.75
2023-09-04T07:59:17.055Z,18.79
2023-09-04T08:01:44.093Z,18.94
2023-09-04T08:04:11.385Z,19.08
2023-09-04T08:06:38.397Z,19.18
2023-09-04T08:09:05.513Z,19.32
2023-09-04T08:11:32.716Z,19.41
2023-09-04T08:13:59.967Z,19.48
2023-09-04T08:16:27.244Z,19.68
2023-09-04T08:18:54.565Z,19.63
2023-09-04T08:21:21.629Z,19.92
2023-09-04T08:23:48.662Z,20.09
2023-09-04T08:26:16.609Z,20.17
2023-09-04T08:28:44.223Z,20.17
2023-09-04T08:31:12.347Z,20.24
2023-09-04T08:33:39.450Z,20.14
2023-09-04T08:36:06.730Z,20.18
2023-09-04T08:38:33.817Z,20.48
2023-09-04T08:41:06.872Z,20.63
2023-09-04T08:43:33.896Z,20.71
2023-09-04T08:46:03.229Z,20.95
2023-09-04T08:48:34.094Z,21.13
2023-09-04T08:51:01.219Z,21.36
2023-09-04T08:53:28.311Z,21.23
2023-09-04T08:55:55.871Z,21.30
2023-09-04T08:58:23.178Z,21.33
2023-09-04T09:00:50.681Z,21.52
2023-09-04T09:03:18.177Z,21.62
2023-09-04T09:05:48.693Z,21.74
2023-09-04T09:08:19.088Z,21.74
2023-09-04T09:10:49.446Z,21.61
2023-09-04T09:13:16.922Z,21.81
2023-09-04T09:15:44.354Z,21.72
2023-09-04T09:18:11.482Z,21.89
2023-09-04T09:20:43.817Z,22.05
2023-09-04T09:23:11.257Z,22.21
2023-09-04T09:25:39.551Z,22.29
2023-09-04T09:28:10.193Z,22.21
2023-09-04T09:30:40.465Z,22.44
2023-09-04T09:33:14.378Z,22.59
2023-09-04T09:35:41.860Z,22.77
2023-09-04T09:38:10.028Z,22.67
2023-09-04T09:40:38.402Z,22.70
2023-09-04T09:43:05.522Z,22.77
2023-09-04T09:45:36.991Z,22.81
2023-09-04T09:48:06.490Z,22.75
2023-09-04T09:50:34.264Z,22.73
2023-09-04T09:53:02.944Z,22.72
2023-09-04T09:55:33.602Z,22.72
2023-09-04T09:58:02.645Z,22.89
2023-09-04T10:00:30.525Z,23.02
2023-09-04T10:02:59.815Z,23.26
2023-09-04T10:05:27.729Z,23.46
2023-09-04T10:08:02.674Z,23.66
2023-09-04T10:10:38.824Z,23.79
2023-09-04T10:13:18.329Z,24.07
2023-09-04T10:15:49.020Z,24.10
2023-09-04T10:18:23.556Z,24.10
2023-09-04T10:20:53.011Z,24.06
2023-09-04T10:23:25.937Z,24.06
2023-09-04T10:26:14.840Z,24.18
2023-09-04T10:28:45.318Z,24.24
2023-09-04T10:31:14.332Z,24.09
2023-09-04T10:33:42.456Z,23.97
2023-09-04T10:36:10.688Z,24.01
2023-09-04T10:38:38.580Z,24.13
2023-09-04T10:41:09.284Z,24.06
2023-09-04T10:43:43.336Z,24.14
2023-09-04T10:46:14.533Z,24.33
2023-09-04T10:48:53.249Z,24.39
2023-09-04T10:51:26.195Z,24.60
2023-09-04T10:53:53.175Z,24.85
2023-09-04T10:56:20.433Z,24.95
2023-09-04T10:59:07.747Z,24.72
2023-09-04T11:01:38.252Z,24.57
2023-09-04T11:04:08.882Z,24.68
2023-09-04T11:06:41.517Z,24.83
2023-09-04T11:09:13.112Z,25.04
2023-09-04T11:11:40.374Z,24.92
2023-09-04T11:14:07.612Z,25.04
2023-09-04T11:16:39.718Z,25.28
2023-09-04T11:19:16.169Z,25.55
2023-09-04T11:21:47.971Z,25.30
2023-09-04T11:24:15.512Z,25.43
2023-09-04T11:26:42.534Z,25.52
2023-09-04T11:29:09.635Z,25.46
2023-09-04T11:31:36.713Z,25.28
2023-09-04T11:34:05.937Z,25.34
2023-09-04T11:36:38.651Z,25.48
2023-09-04T11:39:16.176Z,25.79
2023-09-04T11:41:43.188Z,25.82
2023-09-04T11:44:10.352Z,25.44
2023-09-04T11:46:37.841Z,25.62
2023-09-04T11:49:05.219Z,25.85
2023-09-04T11:51:37.044Z,26.08
2023-09-04T11:54:08.166Z,26.32
2023-09-04T11:56:36.072Z,26.34
2023-09-04T11:59:06.864Z,26.38
2023-09-04T12:01:34.173Z,26.32
2023-09-04T12:04:03.483Z,26.49
2023-09-04T12:06:30.898Z,26.59
2023-09-04T12:08:59.291Z,26.73
2023-09-04T12:11:28.547Z,26.43
2023-09-04T12:13:56.371Z,26.47
2023-09-04T12:16:23.529Z,26.59
2023-09-04T12:18:50.741Z,26.59
2023-09-04T12:21:17.751Z,26.93
2023-09-04T12:23:48.043Z,26.97
2023-09-04T12:26:17.634Z,27.16
2023-09-04T12:28:45.452Z,27.39
2023-09-04T12:31:12.829Z,27.74
2023-09-04T12:33:42.184Z,27.94
2023-09-04T12:36:12.359Z,27.91
2023-09-04T12:38:40.752Z,28.17
2023-09-04T12:41:08.272Z,28.51
2023-09-04T12:43:35.767Z,28.80
2023-09-04T12:46:03.549Z,28.75
2023-09-04T12:48:30.671Z,28.74
2023-09-04T12:50:57.687Z,28.32
2023-09-04T12:53:25.110Z,28.29
2023-09-04T12:55:52.374Z,28.20
2023-09-04T12:58:19.870Z,28.33
2023-09-04T13:00:47.321Z,28.53
2023-09-04T13:03:14.496Z,28.68
2023-09-04T13:05:41.951Z,28.93
2023-09-04T13:08:08.986Z,29.02
2023-09-04T13:10:36.292Z,29.32
2023-09-04T13:13:03.466Z,29.47
2023-09-04T13:15:31.034Z,29.83
2023-09-04T13:17:58.728Z,30.15
2023-09-04T13:20:26.008Z,30.24
2023-09-04T13:22:53.371Z,30.05
2023-09-04T13:25:20.514Z,29.60
2023-09-04T13:27:47.529Z,29.51
2023-09-04T13:30:14.684Z,29.21
2023-09-04T13:32:41.918Z,29.22
2023-09-04T13:35:09.593Z,29.25
2023-09-04T13:37:37.857Z,29.58
2023-09-04T13:40:06.142Z,29.64
2023-09-04T13:42:33.568Z,29.49
2023-09-04T13:45:01.356Z,29.37
2023-09-04T13:47:28.792Z,29.35
2023-09-04T13:49:56.648Z,29.52
2023-09-04T13:52:25.439Z,29.71
2023-09-04T13:54:56.830Z,29.78
2023-09-04T13:57:27.060Z,29.87
2023-09-04T13:59:54.133Z,30.05
2023-09-04T14:02:21.200Z,29.80
2023-09-04T14:04:48.287Z,29.52
2023-09-04T14:07:16.053Z,29.73
2023-09-04T14:09:43.500Z,29.59
2023-09-04T14:12:11.459Z,29.45
2023-09-04T14:14:38.552Z,29.53
2023-09-04T14:17:06.634Z,30.08
2023-09-04T14:19:34.054Z,30.29
2023-09-04T14:22:01.064Z,30.30
2023-09-04T14:24:28.108Z,30.43
2023-09-04T14:26:55.160Z,30.57
2023-09-04T14:29:22.276Z,30.33
2023-09-04T14:31:49.418Z,30.00
2023-09-04T14:34:16.522Z,30.33
2023-09-04T14:36:57.011Z,30.28
2023-09-04T14:39:30.491Z,30.26
2023-09-04T14:41:57.481Z,30.42
2023-09-04T14:44:24.504Z,30.47
2023-09-04T14:46:51.521Z,30.61
2023-09-04T14:49:18.565Z,30.24
2023-09-04T14:51:45.573Z,30.12
2023-09-04T14:54:12.799Z,30.03
2023-09-04T14:56:40.057Z,29.83
2023-09-04T14:59:07.386Z,29.99
2023-09-04T15:01:34.534Z,30.53
2023-09-04T15:04:02.448Z,30.54
2023-09-04T15:06:29.927Z,30.38
2023-09-04T15:08:57.133Z,30.65
2023-09-04T15:11:26.448Z,30.87
2023-09-04T15:13:53.534Z,30.78
2023-09-04T15:16:20.514Z,30.44
2023-09-04T15:18:47.532Z,30.77
2023-09-04T15:21:17.634Z,30.67
2023-09-04T15:23:44.624Z,30.27
2023-09-04T15:26:11.627Z,30.14
2023-09-04T15:28:38.637Z,30.00
2023-09-04T15:31:05.712Z,30.07
2023-09-04T15:33:32.721Z,29.25
2023-09-04T15:36:02.608Z,29.11
2023-09-04T15:38:32.042Z,29.07
2023-09-04T15:40:59.920Z,28.64
2023-09-04T15:43:26.973Z,28.55
2023-09-04T15:45:55.513Z,28.58
2023-09-04T15:48:25.260Z,28.32
2023-09-04T15:50:52.553Z,28.15
2023-09-04T15:53:24.462Z,27.85
2023-09-04T15:55:56.794Z,27.61
2023-09-04T15:58:25.178Z,27.55
2023-09-04T16:00:55.733Z,27.29
2023-09-04T16:03:22.848Z,27.06
2023-09-04T16:05:49.995Z,26.98
2023-09-04T16:08:18.176Z,27.00
2023-09-04T16:10:48.586Z,26.94
2023-09-04T16:13:20.772Z,26.94
2023-09-04T16:15:47.828Z,26.73
2023-09-04T16:18:14.804Z,26.59
2023-09-04T16:20:46.687Z,26.49
2023-09-04T16:23:17.807Z,26.32
2023-09-04T16:25:45.448Z,26.37
2023-09-04T16:28:12.768Z,26.17
2023-09-04T16:30:40.928Z,26.24
2023-09-04T16:33:12.867Z,26.17
2023-09-04T16:35:42.576Z,25.99
2023-09-04T16:38:09.812Z,25.78
2023-09-04T16:40:44.292Z,25.80
2023-09-04T16:43:11.499Z,25.77
2023-09-04T16:45:38.742Z,25.66
2023-09-04T16:48:08.761Z,25.53
2023-09-04T16:50:35.951Z,25.40
2023-09-04T16:53:03.919Z,25.30
2023-09-04T16:55:33.585Z,25.14
2023-09-04T16:58:00.708Z,25.16
2023-09-04T17:00:27.947Z,25.07
2023-09-04T17:02:55.216Z,25.17
2023-09-04T17:05:23.726Z,24.99
2023-09-04T17:07:50.702Z,24.91
2023-09-04T17:10:19.160Z,24.88
2023-09-04T17:12:46.190Z,24.77
2023-09-04T17:15:13.174Z,24.73
2023-09-04T17:17:40.176Z,24.79
2023-09-04T17:20:08.402Z,24.67
2023-09-04T17:22:35.934Z,24.45
2023-09-04T17:25:02.907Z,24.44
2023-09-04T17:27:29.929Z,24.11
2023-09-04T17:29:57.009Z,24.26
2023-09-04T17:32:24.614Z,24.11
2023-09-04T17:34:51.647Z,23.95
2023-09-04T17:37:18.670Z,23.93
2023-09-04T17:39:45.675Z,23.91
2023-09-04T17:42:15.281Z,23.74
2023-09-04T17:44:42.536Z,23.61
2023-09-04T17:47:09.633Z,23.65
2023-09-04T17:49:37.846Z,23.35
2023-09-04T17:52:05.393Z,23.39
2023-09-04T17:54:32.691Z,23.19
2023-09-04T17:56:59.648Z,23.18
2023-09-04T17:59:27.153Z,23.04
2023-09-04T18:01:55.417Z,22.92
2023-09-04T18:04:22.476Z,22.74
2023-09-04T18:06:49.464Z,22.67
2023-09-04T18:09:16.452Z,22.51
2023-09-04T18:11:43.468Z,22.47
2023-09-04T18:14:10.517Z,22.31
2023-09-04T18:16:37.492Z,22.19
2023-09-04T18:19:04.767Z,22.22
2023-09-04T18:21:31.881Z,22.20
2023-09-04T18:23:58.910Z,22.14
2023-09-04T18:26:26.258Z,22.04
2023-09-04T18:28:54.212Z,21.93
2023-09-04T18:31:24.588Z,21.88
2023-09-04T18:33:53.098Z,21.73
2023-09-04T18:36:20.257Z,21.73
2023-09-04T18:38:47.831Z,21.68
2023-09-04T18:41:16.800Z,21.60
2023-09-04T18:43:47.486Z,21.50
2023-09-04T18:46:14.691Z,21.38
2023-09-04T18:48:41.718Z,21.29
2023-09-04T18:51:08.679Z,21.23
2023-09-04T18:53:37.636Z,21.06
2023-09-04T18:56:05.774Z,20.93
2023-09-04T18:58:33.716Z,20.84
2023-09-04T19:01:04.046Z,20.88
2023-09-04T19:03:31.363Z,20.70
2023-09-04T19:05:58.567Z,20.61
2023-09-04T19:08:25.946Z,20.58
2023-09-04T19:10:54.610Z,20.45
2023-09-04T19:13:22.656Z,20.45
2023-09-04T19:15:50.162Z,20.27
2023-09-04T19:18:17.911Z,20.28
2023-09-04T19:20:44.895Z,20.18
2023-09-04T19:23:11.891Z,20.12
2023-09-04T19:25:38.925Z,20.15
2023-09-04T19:28:06.718Z,20.09
2023-09-04T19:30:33.713Z,19.87
2023-09-04T19:33:01.421Z,19.86
2023-09-04T19:35:28.537Z,19.67
2023-09-04T19:37:55.566Z,19.82
2023-09-04T19:40:22.542Z,19.66
2023-09-04T19:42:49.577Z,19.57
2023-09-04T19:45:17.575Z,19.59
2023-09-04T19:47:44.677Z,19.54
2023-09-04T19:50:12.229Z,19.55
2023-09-04T19:52:40.124Z,19.50
2023-09-04T19:55:08.011Z,19.46
2023-09-04T19:57:37.633Z,19.44
2023-09-04T20:00:07.870Z,19.28
2023-09-04T20:02:43.771Z,19.32
2023-09-04T20:05:10.993Z,19.24
2023-09-04T20:07:38.749Z,19.16
2023-09-04T20:10:06.849Z,19.13
2023-09-04T20:12:33.848Z,18.66
2023-09-04T20:15:00.927Z,18.92
2023-09-04T20:17:27.944Z,18.86
2023-09-04T20:19:55.097Z,18.81
2023-09-04T20:22:23.874Z,18.59
2023-09-04T20:24:51.529Z,18.75
2023-09-04T20:27:18.537Z,18.75
2023-09-04T20:29:45.561Z,18.75
2023-09-04T20:32:16.131Z,18.72
2023-09-04T20:34:43.265Z,18.60
2023-09-04T20:37:10.390Z,18.62
2023-09-04T20:39:37.442Z,18.62
2023-09-04T20:42:08.371Z,18.56
2023-09-04T20:44:36.062Z,18.52
2023-09-04T20:47:06.682Z,18.48
2023-09-04T20:49:33.933Z,18.46
2023-09-04T20:52:00.895Z,18.43
2023-09-04T20:54:27.860Z,18.35
2023-09-04T20:56:57.100Z,18.24
2023-09-04T20:59:27.814Z,17.67
2023-09-04T21:01:55.989Z,18.06
2023-09-04T21:04:23.895Z,18.00
2023-09-04T21:06:52.482Z,17.59
2023-09-04T21:09:20.894Z,17.52
2023-09-04T21:12:07.052Z,17.63
2023-09-04T21:14:53.262Z,17.54
2023-09-04T21:17:39.682Z,17.78
2023-09-04T21:20:29.373Z,17.55
2023-09-04T21:23:15.803Z,17.46
2023-09-04T21:26:01.878Z,17.44
2023-09-04T21:28:50.841Z,17.56
2023-09-04T21:31:40.179Z,17.14
2023-09-04T21:34:26.317Z,17.33
2023-09-04T21:37:12.294Z,16.98
2023-09-04T21:39:58.530Z,16.92
2023-09-04T21:42:44.579Z,16.88
2023-09-04T21:45:33.711Z,16.86
2023-09-04T21:48:19.853Z,16.78
2023-09-04T21:51:06.132Z,17.18
2023-09-04T21:53:52.072Z,16.78
2023-09-04T21:56:38.188Z,16.88
2023-09-04T21:59:23.719Z,17.05
2023-09-04T22:02:09.229Z,17.01
2023-09-04T22:04:54.712Z,16.81
2023-09-04T22:07:40.607Z,16.72
2023-09-04T22:10:26.372Z,16.70
2023-09-04T22:13:12.242Z,16.72
2023-09-04T22:15:57.980Z,16.75
2023-09-04T22:18:48.209Z,16.64
2023-09-04T22:21:34.476Z,16.63
2023-09-04T22:24:19.857Z,16.58
2023-09-04T22:27:05.471Z,16.54
2023-09-04T22:29:52.917Z,16.58
2023-09-04T22:32:39.531Z,16.56
2023-09-04T22:35:25.965Z,16.50
2023-09-04T22:38:11.604Z,16.36
2023-09-04T22:40:57.540Z,16.39
2023-09-04T22:43:43.155Z,16.32
2023-09-04T22:46:28.942Z,16.31
2023-09-04T22:49:14.563Z,16.09
2023-09-04T22:52:00.148Z,16.10
2023-09-04T22:54:45.625Z,16.03
2023-09-04T22:57:31.358Z,16.03
2023-09-04T23:00:17.107Z,16.05
2023-09-04T23:03:02.744Z,16.04
2023-09-04T23:05:48.245Z,15.96
2023-09-04T23:08:33.716Z,15.82
2023-09-04T23:11:19.701Z,15.80
2023-09-04T23:14:05.134Z,15.76
2023-09-04T23:16:53.289Z,15.67
2023-09-04T23:19:40.292Z,15.64
2023-09-04T23:22:08.195Z,15.63
2023-09-04T23:24:35.510Z,15.64
2023-09-04T23:27:05.382Z,15.57
2023-09-04T23:29:32.624Z,15.56
2023-09-04T23:32:10.921Z,15.54
2023-09-04T23:34:39.435Z,15.53
2023-09-04T23:37:10.230Z,15.48
2023-09-04T23:40:00.363Z,15.40
2023-09-04T23:42:47.767Z,15.40
2023-09-04T23:45:18.376Z,15.38
2023-09-04T23:47:48.924Z,15.38
2023-09-04T23:50:18.427Z,15.31
2023-09-04T23:52:46.403Z,15.24
2023-09-04T23:55:18.328Z,15.23
2023-09-04T23:57:49.819Z,15.10
